Portada
METAR-TAF:

METAR-TAF

Aeroports :

Rogers Municipal Airport-Carter Field

Rogers, Arkansas, Estats Units d'Amèrica

latitud: 36-22N, longitud: 094-06W, altitud: 415 m

Observació

L'informe es va fer fa 1 hora i 2 minuts, a les 12:58 UTC
Vent 4 kt del Sud-Est
Temperatura 2°C
Humitat 93%
Pressió 1013 hPa
Visibilitat: 16.1 km
Cel clar

METAR: KROG 181258Z 14004KT 10SM CLR 02/01 A2992 RMK AO2 SLP135 T00170011

Hora: 08:00 (14:00 UTC)

Pronòstic

L'informe es va fer fa 2 hores i 21 minuts, a les 11:39 UTC
Pronòstic vàlid del 18 a les 12 UTC al 19 a les 12 UTC
Vent kt del Nord
Visibilitat: 10 km
Cel ennuvolat a una alçada de 25000 ft
A partir de les 18 a les 1500 UTC
Vent 11 kt del Sud-Oest
Visibilitat: 10 km
Cel ennuvolat a una alçada de 10000 ft
A partir de les 19 a les 0200 UTC
Vent 5 kt del Oest/Sud-Oest
Visibilitat: 10 km
Cel clar

TAF: KROG 181139Z 1812/1912 00000KT P6SM BKN250 FM181500 22011KT P6SM BKN100 FM190200 25005KT P6SM SKC

Observacions i pronòstics meteorològics de més de 4000 aeroports (METAR i TAF).

Les estacions disponibles són els punts grocs i vermells al mapa.

Posi el ratolí al punt desitjat per veure el nom de l'estació.

Feu clic per veure les observacions i els pronòstics meteorològics.

Per canviar el mapa: feu clic els botons verds amb una creu de color negre per apropar; al botó verd amb un guió per allunyar la imatge; o en les fletxes verdes per a mapes adjacents.


METAR-TAF: